Time;durP1;ratioP1;P1;durP2;ratioP2;P2;SDS_P1;SDS_P2;PMS_P1;PMS_P2;Temp;Humidity;BMP_temperature;BMP_pressure;BME280_temperature;BME280_humidity;BME280_pressure;Samples;Min_cycle;Max_cycle;Signal;HPM_P1;HPM_P2
2023/09/23 00:02:06;0.00;0.00;0.62;0.00;0.00;0.62;1.90;1.20;;;28.40;27.20;;;;;;2252248;61;20380;-62
2023/09/23 00:04:52;0.00;0.00;0.62;0.00;0.00;0.62;1.63;0.90;;;28.30;27.20;;;;;;2252144;61;20417;-62
2023/09/23 00:07:36;0.00;0.00;0.62;0.00;0.00;0.62;2.07;1.13;;;28.40;27.20;;;;;;2252216;61;20366;-62
2023/09/23 00:10:21;0.00;0.00;0.62;0.00;0.00;0.62;2.90;1.47;;;28.30;27.20;;;;;;2252143;61;20422;-62
2023/09/23 00:13:08;0.00;0.00;0.62;0.00;0.00;0.62;2.07;1.10;;;28.30;27.20;;;;;;2251717;61;20442;-60
2023/09/23 00:15:55;0.00;0.00;0.62;0.00;0.00;0.62;1.50;0.93;;;28.30;27.20;;;;;;2252237;61;20425;-62
2023/09/23 00:18:41;0.00;0.00;0.62;0.00;0.00;0.62;1.90;1.10;;;28.30;27.20;;;;;;2252164;61;20414;-63
2023/09/23 00:21:27;0.00;0.00;0.62;0.00;0.00;0.62;1.90;1.00;;;28.30;27.20;;;;;;2251967;61;20862;-63
2023/09/23 00:24:13;0.00;0.00;0.62;0.00;0.00;0.62;1.87;1.20;;;28.30;27.20;;;;;;2249355;61;20414;-62
2023/09/23 00:26:59;0.00;0.00;0.62;0.00;0.00;0.62;1.73;1.10;;;28.30;27.20;;;;;;2252312;61;20406;-62
2023/09/23 00:29:45;0.00;0.00;0.62;0.00;0.00;0.62;1.80;1.10;;;28.30;27.20;;;;;;2251863;61;20406;-63
2023/09/23 00:32:32;0.00;0.00;0.62;0.00;0.00;0.62;2.90;1.30;;;28.30;27.20;;;;;;2252110;61;20932;-63
2023/09/23 00:35:18;0.00;0.00;0.62;0.00;0.00;0.62;2.47;1.13;;;28.30;27.10;;;;;;2252121;61;20366;-63
2023/09/23 00:38:05;0.00;0.00;0.62;0.00;0.00;0.62;1.90;1.03;;;28.30;27.10;;;;;;2251832;61;20417;-63
2023/09/23 00:40:51;0.00;0.00;0.62;0.00;0.00;0.62;1.50;0.80;;;28.30;27.10;;;;;;2252335;61;20390;-63
2023/09/23 00:43:36;0.00;0.00;0.62;0.00;0.00;0.62;2.93;0.90;;;28.30;27.10;;;;;;2248850;61;20370;-63
2023/09/23 00:46:23;0.00;0.00;0.62;0.00;0.00;0.62;3.33;1.30;;;28.20;27.10;;;;;;2252265;61;20482;-63
2023/09/23 00:49:08;0.00;0.00;0.62;0.00;0.00;0.62;2.67;1.00;;;28.30;27.10;;;;;;2251801;61;20405;-63
2023/09/23 00:51:53;0.00;0.00;0.62;0.00;0.00;0.62;1.57;0.80;;;28.30;27.20;;;;;;2252303;61;20803;-62
2023/09/23 00:54:40;0.00;0.00;0.62;0.00;0.00;0.62;1.63;1.10;;;28.30;27.10;;;;;;2252128;61;20371;-63
2023/09/23 00:57:25;0.00;0.00;0.62;0.00;0.00;0.62;1.60;0.80;;;28.30;27.10;;;;;;2248830;61;20374;-64
2023/09/23 01:00:23;0.00;0.00;0.62;0.00;0.00;0.62;1.73;1.13;;;28.20;27.10;;;;;;2245424;61;20429;-62
2023/09/23 01:03:09;0.00;0.00;0.62;0.00;0.00;0.62;1.50;0.83;;;28.20;27.10;;;;;;2252149;61;20457;-63
2023/09/23 01:06:11;0.00;0.00;0.62;0.00;0.00;0.62;1.50;0.90;;;28.20;27.00;;;;;;2252019;61;20367;-63
2023/09/23 01:08:57;0.00;0.00;0.62;0.00;0.00;0.62;1.80;1.00;;;28.20;27.10;;;;;;2252395;61;20944;-63
2023/09/23 01:11:44;0.00;0.00;0.62;0.00;0.00;0.62;2.03;1.07;;;28.20;27.10;;;;;;2249491;61;20367;-63
2023/09/23 01:14:31;0.00;0.00;0.62;0.00;0.00;0.62;2.63;1.00;;;28.20;27.10;;;;;;2253059;61;20781;-66
2023/09/23 01:17:16;0.00;0.00;0.62;0.00;0.00;0.62;1.70;1.00;;;28.20;27.60;;;;;;2252868;61;20418;-63
2023/09/23 01:20:00;0.00;0.00;0.62;0.00;0.00;0.62;1.83;1.00;;;28.20;27.00;;;;;;2252528;61;20386;-63
2023/09/23 01:22:47;0.00;0.00;0.62;0.00;0.00;0.62;2.07;1.00;;;28.20;27.10;;;;;;2252924;61;20414;-62
2023/09/23 01:25:36;0.00;0.00;0.62;0.00;0.00;0.62;1.60;0.90;;;28.20;27.00;;;;;;2249604;61;20933;-63
2023/09/23 01:28:21;0.00;0.00;0.62;0.00;0.00;0.62;2.00;1.07;;;28.20;27.10;;;;;;2252292;61;20366;-63
2023/09/23 01:31:07;0.00;0.00;0.62;0.00;0.00;0.62;1.70;1.00;;;28.20;27.60;;;;;;2252912;61;20379;-63
2023/09/23 01:33:52;0.00;0.00;0.62;0.00;0.00;0.62;2.20;1.13;;;28.20;27.00;;;;;;2252618;61;20385;-63
2023/09/23 01:36:37;0.00;0.00;0.62;0.00;0.00;0.62;2.13;1.10;;;28.20;27.10;;;;;;2252594;61;20379;-62
2023/09/23 01:39:24;0.00;0.00;0.62;0.00;0.00;0.62;1.70;0.80;;;28.20;27.10;;;;;;2252279;61;20378;-63
2023/09/23 01:42:09;0.00;0.00;0.62;0.00;0.00;0.62;1.73;0.90;;;28.20;27.10;;;;;;2247972;61;20403;-62
2023/09/23 01:44:54;0.00;0.00;0.62;0.00;0.00;0.62;1.87;0.90;;;28.20;27.10;;;;;;2252746;61;20367;-62
2023/09/23 01:47:40;0.00;0.00;0.62;0.00;0.00;0.62;1.97;0.90;;;28.10;27.00;;;;;;2252683;61;20367;-63
2023/09/23 01:50:29;0.00;0.00;0.62;0.00;0.00;0.62;1.50;0.73;;;28.20;27.10;;;;;;2250477;61;20399;-62
2023/09/23 01:53:21;0.00;0.00;0.62;0.00;0.00;0.62;1.77;1.00;;;28.10;27.00;;;;;;2249499;61;20836;-61
2023/09/23 01:56:09;0.00;0.00;0.62;0.00;0.00;0.62;1.93;0.90;;;28.10;27.00;;;;;;2252451;61;20371;-60
2023/09/23 01:58:53;0.00;0.00;0.62;0.00;0.00;0.62;1.80;0.90;;;28.10;27.00;;;;;;2248959;61;20374;-63
2023/09/23 02:01:41;0.00;0.00;0.62;0.00;0.00;0.62;2.33;1.20;;;28.10;27.00;;;;;;2249543;61;20367;-61
2023/09/23 02:04:25;0.00;0.00;0.62;0.00;0.00;0.62;1.57;0.87;;;28.10;27.00;;;;;;2249528;61;20443;-62
2023/09/23 02:07:10;0.00;0.00;0.62;0.00;0.00;0.62;1.67;0.87;;;28.10;27.00;;;;;;2249670;61;20467;-63
2023/09/23 02:09:55;0.00;0.00;0.62;0.00;0.00;0.62;2.50;1.23;;;28.10;27.00;;;;;;2249052;61;20398;-60
2023/09/23 02:12:42;0.00;0.00;0.62;0.00;0.00;0.62;1.80;1.00;;;28.10;27.00;;;;;;2624602;45;20371;-62
2023/09/23 02:15:26;0.00;0.00;0.62;0.00;0.00;0.62;1.57;0.80;;;28.10;27.00;;;;;;2248608;61;20376;-63
2023/09/23 02:18:11;0.00;0.00;0.62;0.00;0.00;0.62;1.53;0.90;;;28.10;27.10;;;;;;2244943;61;20371;-63
2023/09/23 02:20:56;0.00;0.00;0.62;0.00;0.00;0.62;1.40;0.80;;;28.10;27.10;;;;;;2248538;61;20850;-64
2023/09/23 02:23:41;0.00;0.00;0.62;0.00;0.00;0.62;1.67;0.80;;;28.10;27.10;;;;;;2248844;61;20448;-62
2023/09/23 02:26:27;0.00;0.00;0.62;0.00;0.00;0.62;1.50;0.73;;;28.10;27.10;;;;;;2248488;61;20375;-63
2023/09/23 02:29:16;0.00;0.00;0.62;0.00;0.00;0.62;1.63;0.90;;;28.10;27.10;;;;;;2244926;61;20438;-63
2023/09/23 02:32:02;0.00;0.00;0.62;0.00;0.00;0.62;2.07;1.10;;;28.10;27.10;;;;;;2245605;61;20383;-63
2023/09/23 02:34:46;0.00;0.00;0.62;0.00;0.00;0.62;1.50;0.90;;;28.10;27.10;;;;;;2248459;61;20774;-63
2023/09/23 02:37:31;0.00;0.00;0.62;0.00;0.00;0.62;1.87;0.70;;;28.10;27.10;;;;;;2248864;61;20372;-64
2023/09/23 02:40:17;0.00;0.00;0.62;0.00;0.00;0.62;1.50;1.00;;;28.10;27.10;;;;;;2245474;61;20472;-63
2023/09/23 02:43:04;0.00;0.00;0.62;0.00;0.00;0.62;1.40;0.80;;;28.10;27.10;;;;;;2245461;61;20891;-63
2023/09/23 02:45:56;0.00;0.00;0.62;0.00;0.00;0.62;1.30;0.80;;;28.10;27.10;;;;;;2248474;61;20371;-63
2023/09/23 02:48:40;0.00;0.00;0.62;0.00;0.00;0.62;1.90;1.07;;;28.10;27.10;;;;;;2247951;61;20418;-63
2023/09/23 02:51:26;0.00;0.00;0.62;0.00;0.00;0.62;1.70;1.00;;;28.10;27.10;;;;;;2248457;61;20827;-64
2023/09/23 02:54:13;0.00;0.00;0.62;0.00;0.00;0.62;1.60;0.80;;;28.10;27.10;;;;;;2248406;61;20372;-63
2023/09/23 02:57:05;0.00;0.00;0.62;0.00;0.00;0.62;1.63;0.90;;;28.10;27.10;;;;;;2245098;61;20364;-63
2023/09/23 02:59:56;0.00;0.00;0.62;0.00;0.00;0.62;1.60;1.00;;;28.10;27.10;;;;;;2245055;61;20926;-64
2023/09/23 03:02:45;0.00;0.00;0.62;0.00;0.00;0.62;1.90;1.00;;;28.00;27.00;;;;;;2248436;61;20392;-63
2023/09/23 03:05:31;0.00;0.00;0.62;0.00;0.00;0.62;2.03;1.03;;;28.00;27.00;;;;;;2248657;61;20368;-64
2023/09/23 03:08:15;0.00;0.00;0.62;0.00;0.00;0.62;1.70;1.10;;;28.00;27.00;;;;;;2248039;61;20525;-64
2023/09/23 03:11:02;0.00;0.00;0.62;0.00;0.00;0.62;2.10;1.00;;;28.00;27.00;;;;;;2245323;61;20396;-62
2023/09/23 03:13:49;0.00;0.00;0.62;0.00;0.00;0.62;1.33;0.77;;;28.00;27.00;;;;;;2245523;61;20427;-61
2023/09/23 03:16:34;0.00;0.00;0.62;0.00;0.00;0.62;1.67;1.00;;;28.00;27.00;;;;;;2248782;61;20364;-62
2023/09/23 03:19:26;0.00;0.00;0.62;0.00;0.00;0.62;1.50;1.00;;;28.00;27.00;;;;;;2244687;61;20483;-62
2023/09/23 03:22:12;0.00;0.00;0.62;0.00;0.00;0.62;1.40;0.97;;;28.00;27.00;;;;;;2245223;61;20403;-60
2023/09/23 03:24:57;0.00;0.00;0.62;0.00;0.00;0.62;1.80;1.10;;;28.00;27.00;;;;;;2244998;61;20468;-62
2023/09/23 03:27:42;0.00;0.00;0.62;0.00;0.00;0.62;1.73;1.20;;;28.00;26.90;;;;;;2245259;61;20367;-64
2023/09/23 03:30:27;0.00;0.00;0.62;0.00;0.00;0.62;1.87;1.13;;;28.00;26.90;;;;;;2244899;61;20394;-62
2023/09/23 03:33:12;0.00;0.00;0.62;0.00;0.00;0.62;1.90;1.23;;;28.00;26.90;;;;;;2244916;61;20825;-63
2023/09/23 03:35:58;0.00;0.00;0.62;0.00;0.00;0.62;2.17;1.23;;;28.00;26.90;;;;;;2245335;61;20367;-64
2023/09/23 03:38:43;0.00;0.00;0.62;0.00;0.00;0.62;1.87;1.33;;;28.00;26.90;;;;;;2244840;61;20380;-63
2023/09/23 03:41:28;0.00;0.00;0.62;0.00;0.00;0.62;2.00;1.20;;;28.00;26.90;;;;;;2248257;61;20823;-63
2023/09/23 03:44:16;0.00;0.00;0.62;0.00;0.00;0.62;1.67;1.20;;;27.90;26.90;;;;;;2248444;61;20451;-64
2023/09/23 03:47:00;0.00;0.00;0.62;0.00;0.00;0.62;1.77;1.10;;;27.90;26.90;;;;;;2245016;61;20363;-61
2023/09/23 03:49:45;0.00;0.00;0.62;0.00;0.00;0.62;1.90;1.33;;;27.90;26.90;;;;;;2244605;61;20875;-62
2023/09/23 03:52:32;0.00;0.00;0.62;0.00;0.00;0.62;4.20;1.40;;;27.90;26.90;;;;;;2248382;61;20363;-64
2023/09/23 03:55:18;0.00;0.00;0.62;0.00;0.00;0.62;2.03;1.33;;;27.90;26.90;;;;;;2248228;61;20541;-64
2023/09/23 03:58:04;0.00;0.00;0.62;0.00;0.00;0.62;2.03;1.40;;;27.90;26.90;;;;;;2248005;61;20395;-63
2023/09/23 04:00:49;0.00;0.00;0.62;0.00;0.00;0.62;1.70;1.30;;;27.90;26.90;;;;;;2248359;61;20391;-60
2023/09/23 04:03:34;0.00;0.00;0.62;0.00;0.00;0.62;2.07;1.43;;;27.90;26.90;;;;;;2248161;61;20833;-62
2023/09/23 04:06:19;0.00;0.00;0.62;0.00;0.00;0.62;2.10;1.50;;;27.90;26.90;;;;;;2245178;61;20438;-62
2023/09/23 04:09:09;0.00;0.00;0.62;0.00;0.00;0.62;2.00;1.60;;;27.90;26.90;;;;;;2244484;61;20359;-63
2023/09/23 04:11:54;0.00;0.00;0.62;0.00;0.00;0.62;2.00;1.37;;;27.90;26.90;;;;;;2248498;61;21027;-62
2023/09/23 04:14:39;0.00;0.00;0.62;0.00;0.00;0.62;2.60;1.47;;;27.90;26.90;;;;;;2248365;61;20392;-62
2023/09/23 04:17:24;0.00;0.00;0.62;0.00;0.00;0.62;1.93;1.33;;;27.90;26.80;;;;;;2248266;61;20414;-62
2023/09/23 04:20:10;0.00;0.00;0.62;0.00;0.00;0.62;2.13;1.80;;;27.80;26.80;;;;;;2248131;61;20395;-62
2023/09/23 04:22:55;0.00;0.00;0.62;0.00;0.00;0.62;2.00;1.43;;;27.90;26.80;;;;;;2248580;61;20371;-62
2023/09/23 04:25:42;0.00;0.00;0.62;0.00;0.00;0.62;2.10;1.50;;;27.80;26.80;;;;;;2248186;61;20483;-63
2023/09/23 04:28:27;0.00;0.00;0.62;0.00;0.00;0.62;2.00;1.53;;;27.80;26.80;;;;;;2247134;61;20914;-62
2023/09/23 04:31:13;0.00;0.00;0.62;0.00;0.00;0.62;2.30;1.50;;;27.80;26.80;;;;;;2248191;61;20442;-63
2023/09/23 04:33:59;0.00;0.00;0.62;0.00;0.00;0.62;2.00;1.73;;;27.80;26.80;;;;;;2248199;61;20450;-63
2023/09/23 04:36:44;0.00;0.00;0.62;0.00;0.00;0.62;1.90;1.70;;;27.80;26.80;;;;;;2248138;61;20396;-60
2023/09/23 04:39:30;0.00;0.00;0.62;0.00;0.00;0.62;1.80;1.50;;;27.80;26.80;;;;;;2244206;61;20400;-63
2023/09/23 04:42:17;0.00;0.00;0.62;0.00;0.00;0.62;1.90;1.57;;;27.80;26.80;;;;;;2248002;61;20412;-63
2023/09/23 04:45:02;0.00;0.00;0.62;0.00;0.00;0.62;1.80;1.30;;;27.80;26.80;;;;;;2248756;61;20830;-63
2023/09/23 04:47:50;0.00;0.00;0.62;0.00;0.00;0.62;1.93;1.30;;;27.80;26.80;;;;;;2248482;61;20451;-63
2023/09/23 04:50:35;0.00;0.00;0.62;0.00;0.00;0.62;2.00;1.40;;;27.80;26.80;;;;;;2248674;61;20391;-62
2023/09/23 04:53:20;0.00;0.00;0.62;0.00;0.00;0.62;2.47;1.80;;;27.80;26.80;;;;;;2249068;61;20779;-63
2023/09/23 04:56:16;0.00;0.00;0.62;0.00;0.00;0.62;2.30;1.50;;;27.80;26.80;;;;;;2245641;61;20391;-63
2023/09/23 04:59:03;0.00;0.00;0.62;0.00;0.00;0.62;1.70;1.30;;;27.80;26.80;;;;;;2248547;61;20367;-62
2023/09/23 05:01:48;0.00;0.00;0.62;0.00;0.00;0.62;1.80;1.30;;;27.70;26.80;;;;;;2248772;61;20371;-63
2023/09/23 05:04:32;0.00;0.00;0.62;0.00;0.00;0.62;1.90;1.40;;;27.70;26.80;;;;;;2248682;61;20372;-63
2023/09/23 05:07:18;0.00;0.00;0.62;0.00;0.00;0.62;1.90;1.50;;;27.70;26.80;;;;;;2248622;61;20371;-63
2023/09/23 05:10:03;0.00;0.00;0.62;0.00;0.00;0.62;1.50;1.07;;;27.70;26.80;;;;;;2248254;61;20395;-63
2023/09/23 05:12:47;0.00;0.00;0.62;0.00;0.00;0.62;1.80;1.27;;;27.70;26.80;;;;;;2248820;61;20419;-63
2023/09/23 05:15:33;0.00;0.00;0.62;0.00;0.00;0.62;1.80;1.30;;;27.70;26.80;;;;;;2248726;61;20407;-63
2023/09/23 05:18:18;0.00;0.00;0.62;0.00;0.00;0.62;2.13;1.57;;;27.70;26.80;;;;;;2248581;61;20364;-63
2023/09/23 05:21:04;0.00;0.00;0.62;0.00;0.00;0.62;1.73;1.30;;;27.70;26.80;;;;;;2248573;61;20488;-61
2023/09/23 05:23:50;0.00;0.00;0.62;0.00;0.00;0.62;1.70;1.20;;;27.70;26.80;;;;;;2245753;61;20495;-62
2023/09/23 05:26:35;0.00;0.00;0.62;0.00;0.00;0.62;1.80;1.40;;;27.70;26.80;;;;;;2248830;61;20520;-62
2023/09/23 05:29:20;0.00;0.00;0.62;0.00;0.00;0.62;2.10;1.60;;;27.70;26.80;;;;;;2248459;61;20387;-63
2023/09/23 05:32:07;0.00;0.00;0.62;0.00;0.00;0.62;2.00;1.33;;;27.70;26.80;;;;;;2248431;61;20411;-62
2023/09/23 05:34:54;0.00;0.00;0.62;0.00;0.00;0.62;1.80;1.40;;;27.70;26.80;;;;;;2248810;61;20914;-63
2023/09/23 05:37:40;0.00;0.00;0.62;0.00;0.00;0.62;2.33;1.27;;;27.70;26.80;;;;;;2248767;61;20415;-62
2023/09/23 05:40:27;0.00;0.00;0.62;0.00;0.00;0.62;1.73;1.20;;;27.70;26.80;;;;;;2248798;61;20906;-63
2023/09/23 05:43:11;0.00;0.00;0.62;0.00;0.00;0.62;1.63;1.40;;;27.70;26.80;;;;;;2248751;61;20893;-64
2023/09/23 05:45:56;0.00;0.00;0.62;0.00;0.00;0.62;2.10;1.50;;;27.70;26.80;;;;;;2248612;61;20897;-62
2023/09/23 05:48:42;0.00;0.00;0.62;0.00;0.00;0.62;1.97;1.33;;;27.70;26.80;;;;;;2248737;61;20387;-62
2023/09/23 05:51:27;0.00;0.00;0.62;0.00;0.00;0.62;1.90;1.20;;;27.70;26.80;;;;;;2248679;61;20400;-61
2023/09/23 05:54:12;0.00;0.00;0.62;0.00;0.00;0.62;1.47;1.00;;;27.70;26.80;;;;;;2248506;61;20951;-62
2023/09/23 05:56:56;0.00;0.00;0.62;0.00;0.00;0.62;2.00;1.17;;;27.60;26.70;;;;;;2248930;61;20475;-60
2023/09/23 05:59:41;0.00;0.00;0.62;0.00;0.00;0.62;1.70;1.17;;;27.70;26.80;;;;;;2245153;61;20403;-61
2023/09/23 06:02:25;0.00;0.00;0.62;0.00;0.00;0.62;2.20;1.30;;;27.60;26.80;;;;;;2248840;61;20395;-62
2023/09/23 06:05:12;0.00;0.00;0.62;0.00;0.00;0.62;1.50;1.00;;;27.60;26.80;;;;;;2248948;61;20356;-63
2023/09/23 06:07:56;0.00;0.00;0.62;0.00;0.00;0.62;1.50;1.00;;;27.60;26.80;;;;;;2248168;61;20902;-63
2023/09/23 06:10:41;0.00;0.00;0.62;0.00;0.00;0.62;1.70;1.00;;;27.60;26.70;;;;;;2248767;61;20395;-62
2023/09/23 06:13:25;0.00;0.00;0.62;0.00;0.00;0.62;1.97;1.30;;;27.60;26.70;;;;;;2248817;61;20372;-62
2023/09/23 06:16:10;0.00;0.00;0.62;0.00;0.00;0.62;2.00;1.30;;;27.60;26.80;;;;;;2248510;61;20386;-61
2023/09/23 06:18:55;0.00;0.00;0.62;0.00;0.00;0.62;1.70;1.00;;;27.60;26.80;;;;;;2248433;61;20415;-63
2023/09/23 06:21:41;0.00;0.00;0.62;0.00;0.00;0.62;1.40;1.00;;;27.60;26.80;;;;;;2248619;61;20383;-62
2023/09/23 06:24:26;0.00;0.00;0.62;0.00;0.00;0.62;2.00;1.10;;;27.60;26.70;;;;;;2248674;61;20371;-64
2023/09/23 06:27:11;0.00;0.00;0.62;0.00;0.00;0.62;1.60;1.20;;;27.60;26.70;;;;;;2248729;61;20411;-61
2023/09/23 06:29:55;0.00;0.00;0.62;0.00;0.00;0.62;1.60;0.93;;;27.60;26.70;;;;;;2244938;61;20441;-63
2023/09/23 06:32:40;0.00;0.00;0.62;0.00;0.00;0.62;1.67;1.20;;;27.60;26.70;;;;;;2248664;61;20372;-63
2023/09/23 06:35:25;0.00;0.00;0.62;0.00;0.00;0.62;1.80;1.20;;;27.60;26.70;;;;;;2248821;61;20359;-63
2023/09/23 06:38:11;0.00;0.00;0.62;0.00;0.00;0.62;1.87;1.10;;;27.60;26.70;;;;;;2248185;61;20585;-63
2023/09/23 06:40:55;0.00;0.00;0.62;0.00;0.00;0.62;1.60;1.00;;;27.60;26.70;;;;;;2248623;61;20511;-63
2023/09/23 06:43:40;0.00;0.00;0.62;0.00;0.00;0.62;2.73;1.30;;;27.60;26.70;;;;;;2248733;61;20415;-60
2023/09/23 06:46:24;0.00;0.00;0.62;0.00;0.00;0.62;1.50;1.13;;;27.60;26.70;;;;;;2247753;61;20830;-62
2023/09/23 06:49:09;0.00;0.00;0.62;0.00;0.00;0.62;2.10;1.23;;;27.60;26.70;;;;;;2248152;61;20846;-62
2023/09/23 06:51:53;0.00;0.00;0.62;0.00;0.00;0.62;1.70;1.20;;;27.60;26.70;;;;;;2248213;61;20372;-63
2023/09/23 06:54:39;0.00;0.00;0.62;0.00;0.00;0.62;2.07;1.30;;;27.60;26.70;;;;;;2248639;61;20422;-62
2023/09/23 06:57:24;0.00;0.00;0.62;0.00;0.00;0.62;2.23;1.37;;;27.50;26.70;;;;;;2248548;61;20783;-63
2023/09/23 07:00:11;0.00;0.00;0.62;0.00;0.00;0.62;1.70;1.13;;;27.60;26.70;;;;;;2247950;61;20851;-64
2023/09/23 07:02:57;0.00;0.00;0.62;0.00;0.00;0.62;2.20;1.63;;;27.60;26.70;;;;;;2248474;61;20419;-62
2023/09/23 07:05:43;0.00;0.00;0.62;0.00;0.00;0.62;2.20;1.50;;;27.60;26.70;;;;;;2248403;61;20366;-62
2023/09/23 07:08:27;0.00;0.00;0.62;0.00;0.00;0.62;1.97;1.37;;;27.60;26.60;;;;;;2248075;61;20409;-63
2023/09/23 07:11:13;0.00;0.00;0.62;0.00;0.00;0.62;1.93;1.50;;;27.60;26.60;;;;;;2248256;61;20837;-62
2023/09/23 07:14:00;0.00;0.00;0.62;0.00;0.00;0.62;2.70;1.80;;;27.60;26.60;;;;;;2248397;61;20379;-63
2023/09/23 07:16:44;0.00;0.00;0.62;0.00;0.00;0.62;2.10;1.60;;;27.50;26.60;;;;;;2248497;61;20432;-63
2023/09/23 07:19:29;0.00;0.00;0.62;0.00;0.00;0.62;2.00;1.37;;;27.50;26.60;;;;;;2248155;61;20407;-63
2023/09/23 07:22:14;0.00;0.00;0.62;0.00;0.00;0.62;2.80;1.97;;;27.50;26.60;;;;;;2248119;61;20384;-63
2023/09/23 07:25:00;0.00;0.00;0.62;0.00;0.00;0.62;2.63;1.70;;;27.50;26.60;;;;;;2248609;61;20407;-59
2023/09/23 07:27:46;0.00;0.00;0.62;0.00;0.00;0.62;2.40;2.00;;;27.50;26.50;;;;;;2248453;61;20700;-63
2023/09/23 07:30:33;0.00;0.00;0.62;0.00;0.00;0.62;2.87;2.03;;;27.50;26.50;;;;;;2248276;61;20434;-62
2023/09/23 07:33:18;0.00;0.00;0.62;0.00;0.00;0.62;2.23;2.03;;;27.50;26.50;;;;;;2248274;61;20367;-63
2023/09/23 07:36:10;0.00;0.00;0.62;0.00;0.00;0.62;2.70;2.23;;;27.50;26.50;;;;;;2250695;61;20374;-62
2023/09/23 07:38:55;0.00;0.00;0.62;0.00;0.00;0.62;2.47;2.27;;;27.50;26.50;;;;;;2252128;61;20375;-63
2023/09/23 07:41:39;0.00;0.00;0.62;0.00;0.00;0.62;3.07;2.73;;;27.50;26.50;;;;;;2249169;61;20419;-64
2023/09/23 07:44:25;0.00;0.00;0.62;0.00;0.00;0.62;2.63;2.23;;;27.50;26.50;;;;;;2252205;61;20367;-64
2023/09/23 07:47:10;0.00;0.00;0.62;0.00;0.00;0.62;3.47;2.80;;;27.50;26.50;;;;;;2252525;61;20421;-64
2023/09/23 07:49:54;0.00;0.00;0.62;0.00;0.00;0.62;2.97;2.67;;;27.50;26.50;;;;;;2248876;61;20852;-62
2023/09/23 07:52:39;0.00;0.00;0.62;0.00;0.00;0.62;2.60;2.30;;;27.50;26.50;;;;;;2249095;61;20773;-60
2023/09/23 07:55:23;0.00;0.00;0.62;0.00;0.00;0.62;2.83;2.40;;;27.50;26.50;;;;;;2252361;61;20391;-63
2023/09/23 07:58:08;0.00;0.00;0.62;0.00;0.00;0.62;2.87;2.67;;;27.50;26.50;;;;;;2251984;61;20398;-61
2023/09/23 08:00:54;0.00;0.00;0.62;0.00;0.00;0.62;2.93;2.60;;;27.50;26.60;;;;;;2252426;61;20410;-62
2023/09/23 08:03:38;0.00;0.00;0.62;0.00;0.00;0.62;2.50;2.30;;;27.50;26.60;;;;;;2252480;61;20402;-61
2023/09/23 08:06:23;0.00;0.00;0.62;0.00;0.00;0.62;3.40;2.90;;;27.50;26.60;;;;;;2252427;61;20386;-62
2023/09/23 08:09:09;0.00;0.00;0.62;0.00;0.00;0.62;3.47;2.67;;;27.50;26.60;;;;;;2252254;61;20557;-62
2023/09/23 08:11:53;0.00;0.00;0.62;0.00;0.00;0.62;3.40;2.53;;;27.50;26.60;;;;;;2252588;61;20371;-62
2023/09/23 08:14:38;0.00;0.00;0.62;0.00;0.00;0.62;3.00;2.30;;;27.50;26.60;;;;;;2249189;61;20366;-64
2023/09/23 08:17:24;0.00;0.00;0.62;0.00;0.00;0.62;3.00;2.10;;;27.50;26.70;;;;;;2252541;61;20579;-61
2023/09/23 08:20:23;0.00;0.00;0.62;0.00;0.00;0.62;5.20;2.70;;;27.40;26.60;;;;;;2252862;61;20386;-61
2023/09/23 08:23:08;0.00;0.00;0.62;0.00;0.00;0.62;2.90;1.90;;;27.40;26.60;;;;;;2253201;61;20896;-62
2023/09/23 08:25:54;0.00;0.00;0.62;0.00;0.00;0.62;3.40;2.50;;;27.40;26.60;;;;;;2253282;61;20768;-62
2023/09/23 08:28:39;0.00;0.00;0.62;0.00;0.00;0.62;4.63;2.50;;;27.40;26.60;;;;;;2252487;61;20370;-62
2023/09/23 08:31:23;0.00;0.00;0.62;0.00;0.00;0.62;2.80;2.07;;;27.40;26.70;;;;;;2253102;61;21003;-62
2023/09/23 08:34:10;0.00;0.00;0.62;0.00;0.00;0.62;3.17;2.57;;;27.40;26.70;;;;;;2253164;61;20812;-62
2023/09/23 08:36:55;0.00;0.00;0.62;0.00;0.00;0.62;3.10;2.80;;;27.40;26.70;;;;;;2252996;61;20367;-61
2023/09/23 08:39:40;0.00;0.00;0.62;0.00;0.00;0.62;2.80;2.50;;;27.40;26.70;;;;;;2252608;61;20426;-62
2023/09/23 08:42:25;0.00;0.00;0.62;0.00;0.00;0.62;2.90;2.50;;;27.40;26.70;;;;;;2253043;61;20502;-61
2023/09/23 08:45:10;0.00;0.00;0.62;0.00;0.00;0.62;3.90;2.27;;;27.40;26.70;;;;;;2252719;61;20780;-62
2023/09/23 08:47:56;0.00;0.00;0.62;0.00;0.00;0.62;2.80;2.50;;;27.40;26.70;;;;;;2252783;61;20425;-62
2023/09/23 08:50:51;0.00;0.00;0.62;0.00;0.00;0.62;2.90;2.50;;;27.40;26.70;;;;;;2252745;61;20749;-62
2023/09/23 08:53:39;0.00;0.00;0.62;0.00;0.00;0.62;2.30;2.03;;;27.40;26.70;;;;;;2252631;61;20366;-62
2023/09/23 08:56:24;0.00;0.00;0.62;0.00;0.00;0.62;2.60;2.33;;;27.50;26.80;;;;;;2252889;61;20386;-62
2023/09/23 08:59:11;0.00;0.00;0.62;0.00;0.00;0.62;3.40;2.37;;;27.40;26.70;;;;;;2252569;61;20506;-62
2023/09/23 09:01:55;0.00;0.00;0.62;0.00;0.00;0.62;2.50;2.10;;;27.40;26.80;;;;;;2253077;61;20831;-61
2023/09/23 09:04:40;0.00;0.00;0.62;0.00;0.00;0.62;3.03;2.40;;;27.40;26.80;;;;;;2252945;61;20406;-62
2023/09/23 09:07:33;0.00;0.00;0.62;0.00;0.00;0.62;2.70;2.10;;;27.40;26.80;;;;;;2252502;61;20438;-62
2023/09/23 09:10:18;0.00;0.00;0.62;0.00;0.00;0.62;3.00;2.30;;;27.40;26.80;;;;;;2252904;61;20437;-62
2023/09/23 09:13:03;0.00;0.00;0.62;0.00;0.00;0.62;2.90;2.33;;;27.40;26.80;;;;;;2252334;61;20371;-62
2023/09/23 09:15:48;0.00;0.00;0.62;0.00;0.00;0.62;2.60;1.80;;;27.40;26.80;;;;;;2252947;61;20382;-62
2023/09/23 09:18:33;0.00;0.00;0.62;0.00;0.00;0.62;3.07;2.20;;;27.40;26.80;;;;;;2252514;61;20397;-60
2023/09/23 09:21:18;0.00;0.00;0.62;0.00;0.00;0.62;2.40;2.00;;;27.40;26.80;;;;;;2252969;61;20386;-62
2023/09/23 09:24:06;0.00;0.00;0.62;0.00;0.00;0.62;3.00;2.47;;;27.40;26.80;;;;;;2252821;61;20467;-61
2023/09/23 09:26:50;0.00;0.00;0.62;0.00;0.00;0.62;3.13;2.00;;;27.40;26.80;;;;;;2253087;61;20378;-62
2023/09/23 09:29:35;0.00;0.00;0.62;0.00;0.00;0.62;3.50;1.97;;;27.40;26.90;;;;;;2252139;61;20390;-61
2023/09/23 09:32:23;0.00;0.00;0.62;0.00;0.00;0.62;3.53;2.03;;;27.40;26.90;;;;;;2253037;61;20862;-62
2023/09/23 09:35:13;0.00;0.00;0.62;0.00;0.00;0.62;2.80;2.10;;;27.40;26.90;;;;;;2251150;61;20422;-62
2023/09/23 09:38:06;0.00;0.00;0.62;0.00;0.00;0.62;1.90;1.50;;;27.40;26.90;;;;;;2252502;61;20413;-62
2023/09/23 09:41:04;0.00;0.00;0.62;0.00;0.00;0.62;2.80;2.00;;;27.40;26.90;;;;;;2252769;61;20386;-62
2023/09/23 09:43:49;0.00;0.00;0.62;0.00;0.00;0.62;2.93;1.50;;;27.40;26.90;;;;;;2252429;61;20370;-62
2023/09/23 09:46:38;0.00;0.00;0.62;0.00;0.00;0.62;2.40;1.70;;;27.40;26.90;;;;;;2252790;61;20888;-62
2023/09/23 09:49:23;0.00;0.00;0.62;0.00;0.00;0.62;2.60;1.77;;;27.40;26.90;;;;;;2252490;61;20379;-62
2023/09/23 09:52:09;0.00;0.00;0.62;0.00;0.00;0.62;2.27;1.57;;;27.40;27.00;;;;;;2252565;61;20394;-62
2023/09/23 09:54:57;0.00;0.00;0.62;0.00;0.00;0.62;2.27;1.77;;;27.40;27.00;;;;;;2252475;61;20864;-62
2023/09/23 09:57:43;0.00;0.00;0.62;0.00;0.00;0.62;2.33;1.50;;;27.40;27.00;;;;;;2252725;61;20382;-62
2023/09/23 10:00:30;0.00;0.00;0.62;0.00;0.00;0.62;2.40;1.80;;;27.40;27.00;;;;;;2249488;61;20917;-63
2023/09/23 10:03:15;0.00;0.00;0.62;0.00;0.00;0.62;2.20;1.63;;;27.50;27.10;;;;;;2252727;61;20820;-62
2023/09/23 10:06:00;0.00;0.00;0.62;0.00;0.00;0.62;3.30;1.80;;;27.40;27.00;;;;;;2252626;61;20460;-62
2023/09/23 10:08:48;0.00;0.00;0.62;0.00;0.00;0.62;2.20;1.60;;;27.40;27.00;;;;;;2252423;61;20359;-62
2023/09/23 10:11:39;0.00;0.00;0.62;0.00;0.00;0.62;3.63;1.97;;;27.40;27.00;;;;;;2252508;61;21158;-62
2023/09/23 10:14:26;0.00;0.00;0.62;0.00;0.00;0.62;2.30;1.80;;;27.40;27.00;;;;;;2252728;61;20375;-61
2023/09/23 10:17:13;0.00;0.00;0.62;0.00;0.00;0.62;3.13;2.00;;;27.40;27.00;;;;;;2251296;61;20490;-62
2023/09/23 10:19:58;0.00;0.00;0.62;0.00;0.00;0.62;2.23;1.73;;;27.40;27.00;;;;;;2252281;61;20929;-63
2023/09/23 10:22:52;0.00;0.00;0.62;0.00;0.00;0.62;2.87;1.80;;;27.40;27.00;;;;;;2249425;61;20457;-63
2023/09/23 10:25:42;0.00;0.00;0.62;0.00;0.00;0.62;2.80;1.83;;;27.50;27.10;;;;;;2252548;61;20374;-62
2023/09/23 10:28:30;0.00;0.00;0.62;0.00;0.00;0.62;2.37;1.60;;;27.50;27.60;;;;;;2252026;61;20789;-63
2023/09/23 10:31:16;0.00;0.00;0.62;0.00;0.00;0.62;2.30;1.87;;;27.50;27.10;;;;;;2252500;61;20703;-62
2023/09/23 10:34:04;0.00;0.00;0.62;0.00;0.00;0.62;2.27;1.60;;;27.40;27.00;;;;;;2252331;61;20909;-63
2023/09/23 10:36:50;0.00;0.00;0.62;0.00;0.00;0.62;2.40;1.83;;;27.50;27.10;;;;;;2252544;61;20785;-62
2023/09/23 10:39:35;0.00;0.00;0.62;0.00;0.00;0.62;2.37;1.70;;;27.50;27.10;;;;;;2251966;61;20801;-63
2023/09/23 10:42:20;0.00;0.00;0.62;0.00;0.00;0.62;5.20;1.50;;;27.50;27.10;;;;;;2252642;61;20391;-63
2023/09/23 10:45:06;0.00;0.00;0.62;0.00;0.00;0.62;3.20;1.80;;;27.50;27.00;;;;;;2252668;61;20378;-62
2023/09/23 10:47:53;0.00;0.00;0.62;0.00;0.00;0.62;2.27;1.50;;;27.50;27.00;;;;;;2252468;61;20367;-62
2023/09/23 10:50:39;0.00;0.00;0.62;0.00;0.00;0.62;3.20;1.87;;;27.50;27.00;;;;;;2252218;61;20391;-63
2023/09/23 10:53:27;0.00;0.00;0.62;0.00;0.00;0.62;2.73;2.13;;;27.50;27.00;;;;;;2252305;61;20777;-63
2023/09/23 10:56:12;0.00;0.00;0.62;0.00;0.00;0.62;1.80;1.40;;;27.50;27.00;;;;;;2252385;61;20797;-61